createdAt,value
2023-03-18T00:03:10.222Z,-1.8
2023-03-18T00:09:03.557Z,-1.9
2023-03-18T00:14:24.881Z,-1.9
2023-03-18T00:19:31.149Z,-1.9
2023-03-18T00:24:53.008Z,-1.9
2023-03-18T00:30:29.671Z,-1.8
2023-03-18T00:36:22.646Z,-1.9
2023-03-18T00:42:16.218Z,-1.9
2023-03-18T00:48:09.695Z,-2.1
2023-03-18T00:53:31.501Z,-2
2023-03-18T00:59:09.460Z,-2
2023-03-18T01:05:03.219Z,-2.1
2023-03-18T01:10:40.697Z,-1.8
2023-03-18T01:16:21.213Z,-2.1
2023-03-18T01:22:13.941Z,-2.2
2023-03-18T01:27:35.786Z,-2.3
2023-03-18T01:33:12.854Z,-2.4
2023-03-18T01:39:05.200Z,-2.8
2023-03-18T01:44:57.503Z,-2.8
2023-03-18T01:50:34.889Z,-2.9
2023-03-18T01:55:57.361Z,-3
2023-03-18T02:01:49.970Z,-3.1
2023-03-18T02:07:43.943Z,-3.1
2023-03-18T02:13:20.276Z,-2.9
2023-03-18T02:19:13.648Z,-2.8
2023-03-18T02:24:35.505Z,-3
2023-03-18T02:30:13.457Z,-3.1
2023-03-18T02:36:06.272Z,-3.3
2023-03-18T02:41:59.720Z,-3.1
2023-03-18T02:47:51.701Z,-3.3
2023-03-18T02:53:43.940Z,-3.3
2023-03-18T02:59:36.603Z,-3.4
2023-03-18T03:04:44.640Z,-3.6
2023-03-18T03:10:21.533Z,-3.7
2023-03-18T03:15:58.774Z,-3.8
2023-03-18T03:21:36.493Z,-3.8
2023-03-18T03:27:28.945Z,-3.8
2023-03-18T03:33:21.191Z,-3.6
2023-03-18T03:38:43.475Z,-3.6
2023-03-18T03:44:36.563Z,-3.7
2023-03-18T03:50:29.595Z,-3.6
2023-03-18T03:56:06.780Z,-3.6
2023-03-18T04:12:43.018Z,-3.6
2023-03-18T04:18:37.292Z,-3.5
2023-03-18T04:23:59.016Z,-3.5
2023-03-18T04:29:35.381Z,-3.3
2023-03-18T04:35:29.147Z,-3.3
2023-03-18T04:41:21.986Z,-3.4
2023-03-18T04:47:15.264Z,-3.3
2023-03-18T04:58:45.862Z,-3.4
2023-03-18T05:04:26.738Z,-3.3
2023-03-18T05:10:19.334Z,-3.1
2023-03-18T05:16:11.778Z,-3.2
2023-03-18T05:21:32.910Z,-3.4
2023-03-18T05:27:25.617Z,-3.3
2023-03-18T05:33:19.554Z,-3
2023-03-18T05:39:13.011Z,-2.9
2023-03-18T05:45:13.800Z,-2.5
2023-03-18T05:51:06.637Z,-2.5
2023-03-18T05:57:00.324Z,-2.4
2023-03-18T06:02:23.145Z,-2.3
2023-03-18T06:08:02.857Z,-2.4
2023-03-18T06:13:55.703Z,-2.5
2023-03-18T06:19:49.504Z,-2
2023-03-18T06:25:27.575Z,-2
2023-03-18T06:31:20.734Z,-2.2
2023-03-18T06:37:13.948Z,-1.8
2023-03-18T06:43:06.661Z,-1.7
2023-03-18T06:49:02.029Z,-1.3
2023-03-18T06:54:53.922Z,-0.9
2023-03-18T07:00:46.544Z,-0.8
2023-03-18T07:06:24.681Z,-0.4
2023-03-18T07:12:16.712Z,-0.3
2023-03-18T07:18:10.907Z,0.4
2023-03-18T07:23:50.487Z,0.9
2023-03-18T07:29:28.924Z,1
2023-03-18T07:35:25.777Z,2.1
2023-03-18T07:41:18.565Z,3.1
2023-03-18T07:47:14.032Z,3.3
2023-03-18T07:53:06.101Z,3.5
2023-03-18T07:59:00.046Z,3.3
2023-03-18T08:04:57.789Z,4.9
2023-03-18T08:10:36.274Z,4.6
2023-03-18T08:16:48.984Z,5.1
2023-03-18T08:22:42.584Z,5.8
2023-03-18T08:28:35.266Z,7.3
2023-03-18T08:34:29.327Z,6.3
2023-03-18T08:40:08.756Z,6.3
2023-03-18T08:46:01.220Z,6.1
2023-03-18T08:51:39.065Z,7
2023-03-18T08:57:31.537Z,7.9
2023-03-18T09:02:53.500Z,8.3
2023-03-18T09:08:30.970Z,8.7
2023-03-18T09:14:30.431Z,8.3
2023-03-18T09:20:49.851Z,10
2023-03-18T09:26:42.442Z,8.9
2023-03-18T09:32:35.351Z,10.4
2023-03-18T09:38:28.692Z,11
2023-03-18T09:44:21.622Z,9.6
2023-03-18T09:50:15.118Z,12.6
2023-03-18T09:56:07.953Z,12.9
2023-03-18T10:01:44.523Z,12.2
2023-03-18T10:07:37.732Z,12.7
2023-03-18T10:13:14.659Z,11.9
2023-03-18T10:18:52.305Z,13
2023-03-18T10:24:45.869Z,13.1
2023-03-18T10:30:49.454Z,14.6
2023-03-18T10:36:45.688Z,14.3
2023-03-18T10:42:39.467Z,12.9
2023-03-18T10:48:32.152Z,11.6
2023-03-18T10:54:24.394Z,11.2
2023-03-18T11:00:16.598Z,10.3
2023-03-18T11:06:09.864Z,10.2
2023-03-18T11:12:03.210Z,9.8
2023-03-18T11:17:56.935Z,9.4
2023-03-18T11:23:49.611Z,9.9
2023-03-18T11:29:42.351Z,10.5
2023-03-18T11:35:45.578Z,11.7
2023-03-18T11:41:43.798Z,12.6
2023-03-18T11:47:36.928Z,12.6
2023-03-18T11:53:14.620Z,12.1
2023-03-18T11:58:36.812Z,12.4
2023-03-18T12:03:59.125Z,12
2023-03-18T12:09:23.241Z,12.3
2023-03-18T12:15:17.265Z,13.2
2023-03-18T12:21:11.823Z,12.6
2023-03-18T12:26:49.361Z,13.3
2023-03-18T12:32:11.537Z,11.7
2023-03-18T12:37:50.914Z,11.6
2023-03-18T12:43:44.735Z,10.8
2023-03-18T12:49:49.998Z,12.6
2023-03-18T12:55:26.575Z,13.1
2023-03-18T13:01:22.962Z,11.6
2023-03-18T13:07:04.010Z,12.1
2023-03-18T13:12:40.882Z,12.1
2023-03-18T13:18:22.197Z,11.7
2023-03-18T13:24:15.628Z,12.2
2023-03-18T13:30:09.047Z,11.9
2023-03-18T13:36:04.278Z,11.8
2023-03-18T13:41:57.692Z,10.9
2023-03-18T13:47:51.181Z,12.4
2023-03-18T13:53:29.565Z,13.1
2023-03-18T13:59:21.804Z,12.1
2023-03-18T14:05:15.968Z,12.5
2023-03-18T14:11:24.893Z,12
2023-03-18T14:17:19.619Z,12.1
2023-03-18T14:22:59.930Z,12.9
2023-03-18T14:28:23.509Z,12.4
2023-03-18T14:33:45.619Z,12.9
2023-03-18T14:39:22.640Z,12.9
2023-03-18T14:45:18.591Z,11.6
2023-03-18T14:51:04.415Z,11.9
2023-03-18T14:56:41.332Z,12.3
2023-03-18T15:02:34.124Z,12.4
2023-03-18T15:08:34.456Z,12.3
2023-03-18T15:14:16.943Z,11.2
2023-03-18T15:19:54.292Z,11.1
2023-03-18T15:25:47.787Z,10.9
2023-03-18T15:31:24.626Z,11.1
2023-03-18T15:37:18.413Z,11.9
2023-03-18T15:43:11.204Z,12.3
2023-03-18T15:48:48.884Z,12.1
2023-03-18T15:54:26.115Z,11.4
2023-03-18T16:00:19.997Z,11.4
2023-03-18T16:06:11.913Z,10.8
2023-03-18T16:12:05.042Z,9.9
2023-03-18T16:17:42.769Z,9.7
2023-03-18T16:23:35.690Z,9
2023-03-18T16:29:28.402Z,7.8
2023-03-18T16:35:21.661Z,7.4
2023-03-18T16:40:59.127Z,7.3
2023-03-18T16:46:37.398Z,7.1
2023-03-18T16:52:13.967Z,6.9
2023-03-18T16:57:51.528Z,6.8
2023-03-18T17:03:44.022Z,6.5
2023-03-18T17:09:22.168Z,6.3
2023-03-18T17:15:17.375Z,6.1
2023-03-18T17:20:54.042Z,6
2023-03-18T17:26:46.916Z,5.9
2023-03-18T17:32:27.702Z,5.8
2023-03-18T17:38:20.227Z,5.6
2023-03-18T17:43:57.776Z,5.4
2023-03-18T17:49:34.869Z,5.4
2023-03-18T17:55:12.067Z,5.3
2023-03-18T18:01:05.012Z,5.3
2023-03-18T18:06:42.719Z,5.2
2023-03-18T18:12:19.804Z,5.1
2023-03-18T18:17:57.451Z,4.9
2023-03-18T18:23:52.554Z,4.9
2023-03-18T18:29:33.842Z,4.8
2023-03-18T18:34:57.528Z,5
2023-03-18T18:40:34.719Z,4.9
2023-03-18T18:46:27.624Z,4.9
2023-03-18T18:51:50.164Z,5.1
2023-03-18T18:57:43.571Z,4.8
2023-03-18T19:03:37.324Z,4.9
2023-03-18T19:09:15.377Z,4.7
2023-03-18T19:15:09.326Z,4.6
2023-03-18T19:20:47.023Z,4.4
2023-03-18T19:26:40.133Z,4.3
2023-03-18T19:32:24.709Z,4
2023-03-18T19:38:16.757Z,3.6
2023-03-18T19:43:55.621Z,3.5
2023-03-18T19:49:34.744Z,3.4
2023-03-18T19:55:29.470Z,3.6
2023-03-18T20:01:25.302Z,3.8
2023-03-18T20:07:19.209Z,3.6
2023-03-18T20:13:11.438Z,3.1
2023-03-18T20:19:05.096Z,2.9
2023-03-18T20:24:57.451Z,2.9
2023-03-18T20:30:35.017Z,2.9
2023-03-18T20:35:58.014Z,3.1
2023-03-18T20:41:04.148Z,3
2023-03-18T20:46:26.608Z,3.1
2023-03-18T20:52:04.662Z,3
2023-03-18T20:57:56.801Z,2.6
2023-03-18T21:03:34.642Z,2.4
2023-03-18T21:09:28.227Z,2.1
2023-03-18T21:15:05.892Z,2.3
2023-03-18T21:21:11.969Z,1.6
2023-03-18T21:27:19.851Z,1.1
2023-03-18T21:33:16.200Z,0.8
2023-03-18T21:38:53.750Z,0.8
2023-03-18T21:44:31.648Z,0.8
2023-03-18T21:50:27.010Z,0.8
2023-03-18T21:56:31.465Z,0.6
2023-03-18T22:02:24.549Z,0.5
2023-03-18T22:08:17.304Z,0.5
2023-03-18T22:13:38.077Z,0.4
2023-03-18T22:19:16.372Z,0.3
2023-03-18T22:24:54.166Z,0.5
2023-03-18T22:30:16.110Z,0.6
2023-03-18T22:35:54.693Z,0.4
2023-03-18T22:41:47.651Z,0.6
2023-03-18T22:47:42.221Z,0.8
2023-03-18T22:53:18.963Z,0.8
2023-03-18T22:58:58.266Z,0.4
2023-03-18T23:04:52.870Z,0.3
2023-03-18T23:10:28.725Z,0.2
2023-03-18T23:16:21.886Z,0.7
2023-03-18T23:22:15.521Z,0.3
2023-03-18T23:28:07.928Z,0.1
2023-03-18T23:34:05.652Z,-0.2
2023-03-18T23:39:12.402Z,-0.3
2023-03-18T23:45:05.838Z,-0.2
2023-03-18T23:51:00.759Z,-0.6
2023-03-18T23:57:15.695Z,-0.8
